createdAt,value
2022-11-04T00:00:35.606Z,100087.53
2022-11-04T00:03:02.457Z,100089.63
2022-11-04T00:05:29.546Z,100079.91
2022-11-04T00:08:15.314Z,100087.34
2022-11-04T00:11:00.639Z,100080.31
2022-11-04T00:13:30.929Z,100079.75
2022-11-04T00:16:20.263Z,100064.72
2022-11-04T00:18:47.830Z,100060.69
2022-11-04T00:21:33.253Z,100065.72
2022-11-04T00:24:18.689Z,100070.19
2022-11-04T00:27:04.096Z,100061.28
2022-11-04T00:29:31.337Z,100073.03
2022-11-04T00:32:16.373Z,100059.03
2022-11-04T00:34:43.729Z,100063.56
2022-11-04T00:37:10.605Z,100071.56
2022-11-04T00:39:37.523Z,100059.78
2022-11-04T00:42:04.444Z,100064.31
2022-11-04T00:44:31.339Z,100057.28
2022-11-04T00:46:58.243Z,100063.97
2022-11-04T00:49:25.612Z,100048.38
2022-11-04T00:51:52.488Z,100058.81
2022-11-04T00:54:19.456Z,100059.31
2022-11-04T00:56:48.582Z,100049.91
2022-11-04T00:59:15.691Z,100047.00
2022-11-04T01:01:43.070Z,100049.59
2022-11-04T01:04:10.353Z,100048.56
2022-11-04T01:06:37.363Z,100054.13
2022-11-04T01:09:08.281Z,100045.56
2022-11-04T01:11:35.594Z,100029.16
2022-11-04T01:14:02.503Z,100046.28
2022-11-04T01:16:29.591Z,100044.13
2022-11-04T01:18:57.165Z,100037.72
2022-11-04T01:21:24.362Z,100037.97
2022-11-04T01:23:51.460Z,100031.34
2022-11-04T01:26:23.435Z,100022.84
2022-11-04T01:28:52.051Z,100014.84
2022-11-04T01:31:22.187Z,100001.81
2022-11-04T01:33:51.329Z,100017.56
2022-11-04T01:36:19.280Z,100017.91
2022-11-04T01:38:46.273Z,100004.63
2022-11-04T01:41:33.744Z,100003.56
2022-11-04T01:44:43.437Z,100005.25
2022-11-04T01:47:36.458Z,100008.25
2022-11-04T01:50:25.417Z,100016.81
2022-11-04T01:53:12.200Z,100011.53
2022-11-04T01:55:47.602Z,100004.09
2022-11-04T01:58:18.505Z,100019.94
2022-11-04T02:00:46.028Z,100014.34
2022-11-04T02:03:24.679Z,100010.13
2022-11-04T02:05:51.912Z,100009.63
2022-11-04T02:08:18.955Z,100016.66
2022-11-04T02:10:54.104Z,100017.78
2022-11-04T02:13:21.060Z,100008.69
2022-11-04T02:16:14.943Z,100003.66
2022-11-04T02:19:36.340Z,100003.97
2022-11-04T02:22:42.310Z,99993.53
2022-11-04T02:26:06.882Z,99982.84
2022-11-04T02:29:27.102Z,99988.44
2022-11-04T02:32:09.007Z,99978.25
2022-11-04T02:35:05.144Z,99972.09
2022-11-04T02:38:03.876Z,99972.59
2022-11-04T02:41:00.761Z,99975.53
2022-11-04T02:43:46.332Z,99970.69
2022-11-04T02:46:38.049Z,99976.53
2022-11-04T02:49:15.765Z,99980.00
2022-11-04T02:51:54.290Z,99970.88
2022-11-04T02:54:35.690Z,99972.47
2022-11-04T02:57:07.442Z,99962.06
2022-11-04T02:59:53.371Z,99954.53
2022-11-04T03:02:50.249Z,99964.72
2022-11-04T03:05:28.663Z,99953.16
2022-11-04T03:08:02.146Z,99955.59
2022-11-04T03:10:39.246Z,99946.47
2022-11-04T03:13:25.782Z,99953.41
2022-11-04T03:15:59.966Z,99946.47
2022-11-04T03:18:57.142Z,99950.19
2022-11-04T03:21:26.202Z,99943.47
2022-11-04T03:23:54.159Z,99943.47
2022-11-04T03:26:41.927Z,99954.97
2022-11-04T03:29:14.614Z,99954.91
2022-11-04T03:32:01.800Z,99962.66
2022-11-04T03:34:29.133Z,99951.38
2022-11-04T03:36:56.868Z,99976.34
2022-11-04T03:39:24.312Z,99977.94
2022-11-04T03:41:56.688Z,99971.31
2022-11-04T03:44:24.514Z,99970.00
2022-11-04T03:46:55.035Z,99960.38
2022-11-04T03:49:23.572Z,99971.38
2022-11-04T03:51:52.155Z,99987.22
2022-11-04T03:54:19.916Z,100002.47
2022-11-04T03:57:18.266Z,99988.38
2022-11-04T03:59:53.276Z,99988.13
2022-11-04T04:02:58.835Z,99999.44
2022-11-04T04:05:54.030Z,99996.28
2022-11-04T04:08:38.803Z,99991.72
2022-11-04T04:11:21.307Z,99990.22
2022-11-04T04:14:36.351Z,99985.44
2022-11-04T04:17:37.097Z,99980.69
2022-11-04T04:20:11.244Z,99979.38
2022-11-04T04:22:48.302Z,99969.81
2022-11-04T04:25:36.470Z,99983.72
2022-11-04T04:28:04.550Z,99973.28
2022-11-04T04:30:31.688Z,99967.44
2022-11-04T04:33:11.906Z,99972.84
2022-11-04T04:35:47.324Z,99977.44
2022-11-04T04:38:42.506Z,99982.53
2022-11-04T04:41:42.268Z,99976.38
2022-11-04T04:44:45.680Z,99975.31
2022-11-04T04:47:20.002Z,99963.56
2022-11-04T04:49:56.314Z,99967.09
2022-11-04T04:52:27.912Z,99964.41
2022-11-04T04:54:54.830Z,99963.91
2022-11-04T04:57:21.738Z,99971.13
2022-11-04T04:59:48.660Z,99970.06
2022-11-04T05:02:15.664Z,99972.78
2022-11-04T05:04:42.889Z,99969.06
2022-11-04T05:07:10.041Z,99970.69
2022-11-04T05:09:37.610Z,99981.69
2022-11-04T05:12:04.671Z,99988.09
2022-11-04T05:14:31.825Z,99985.97
2022-11-04T05:16:58.946Z,99984.66
2022-11-04T05:19:26.304Z,99982.56
2022-11-04T05:21:53.103Z,99983.34
2022-11-04T05:24:19.974Z,99976.94
2022-11-04T05:26:46.925Z,99986.63
2022-11-04T05:31:42.651Z,99987.72
2022-11-04T05:34:13.827Z,99995.50
2022-11-04T05:36:41.220Z,99997.41
2022-11-04T05:39:08.288Z,100006.81
2022-11-04T05:41:35.563Z,100008.97
2022-11-04T05:44:04.161Z,100008.47
2022-11-04T05:46:31.747Z,100013.59
2022-11-04T05:48:58.749Z,100010.97
2022-11-04T05:51:28.613Z,100019.00
2022-11-04T05:53:55.590Z,100019.28
2022-11-04T05:56:22.597Z,100013.13
2022-11-04T05:58:49.503Z,100014.75
2022-11-04T06:01:33.173Z,100024.41
2022-11-04T06:04:01.990Z,100027.91
2022-11-04T06:06:32.580Z,100025.78
2022-11-04T06:08:59.894Z,100029.53
2022-11-04T06:11:29.577Z,100029.56
2022-11-04T06:13:57.471Z,100045.09
2022-11-04T06:16:24.697Z,100052.88
2022-11-04T06:18:52.483Z,100041.13
2022-11-04T06:21:31.929Z,100045.41
2022-11-04T06:23:59.823Z,100059.88
2022-11-04T06:26:28.811Z,100061.25
2022-11-04T06:28:57.212Z,100050.84
2022-11-04T06:31:24.176Z,100058.63
2022-11-04T06:33:51.258Z,100054.63
2022-11-04T06:36:18.430Z,100048.75
2022-11-04T06:38:45.795Z,100051.72
2022-11-04T06:41:16.452Z,100062.47
2022-11-04T06:43:44.184Z,100069.44
2022-11-04T06:46:35.547Z,100075.91
2022-11-04T06:49:03.721Z,100067.59
2022-11-04T06:51:31.113Z,100079.13
2022-11-04T06:53:58.013Z,100074.31
2022-11-04T06:56:25.417Z,100081.88
2022-11-04T06:58:54.321Z,100090.19
2022-11-04T07:01:24.074Z,100087.78
2022-11-04T07:03:53.992Z,100090.50
2022-11-04T07:06:21.846Z,100090.28
2022-11-04T07:08:50.714Z,100085.25
2022-11-04T07:11:21.444Z,100090.38
2022-11-04T07:13:49.095Z,100089.31
2022-11-04T07:16:16.553Z,100093.34
2022-11-04T07:18:43.727Z,100082.69
2022-11-04T07:21:11.621Z,100077.91
2022-11-04T07:23:39.037Z,100070.94
2022-11-04T07:26:09.120Z,100069.66
2022-11-04T07:28:36.560Z,100064.56
2022-11-04T07:31:06.411Z,100079.63
2022-11-04T07:33:33.900Z,100076.69
2022-11-04T07:36:11.636Z,100077.75
2022-11-04T07:38:38.934Z,100080.44
2022-11-04T07:41:06.003Z,100079.63
2022-11-04T07:43:33.046Z,100090.91
2022-11-04T07:46:13.110Z,100084.47
2022-11-04T07:48:40.187Z,100074.03
2022-11-04T07:51:11.190Z,100077.00
2022-11-04T07:53:38.554Z,100062.53
2022-11-04T07:56:07.530Z,100052.38
2022-11-04T07:58:34.916Z,100065.88
2022-11-04T08:01:12.589Z,100063.22
2022-11-04T08:03:40.223Z,100067.81
2022-11-04T08:06:10.614Z,100059.78
2022-11-04T08:08:38.513Z,100058.75
2022-11-04T08:11:17.129Z,100058.22
2022-11-04T08:13:46.542Z,100058.22
2022-11-04T08:16:17.252Z,100063.06
2022-11-04T08:18:45.765Z,100061.97
2022-11-04T08:21:13.618Z,100057.69
2022-11-04T08:23:40.662Z,100071.13
2022-11-04T08:26:10.000Z,100084.81
2022-11-04T08:28:37.610Z,100078.09
2022-11-04T08:31:18.693Z,100084.28
2022-11-04T08:33:46.584Z,100071.66
2022-11-04T08:36:29.803Z,100087.22
2022-11-04T08:38:57.901Z,100082.41
2022-11-04T08:41:29.172Z,100083.75
2022-11-04T08:44:00.875Z,100074.88
2022-11-04T08:46:29.353Z,100078.41
2022-11-04T08:48:56.271Z,100075.72
2022-11-04T08:51:27.383Z,100085.09
2022-11-04T08:53:55.107Z,100087.53
2022-11-04T08:56:27.579Z,100117.34
2022-11-04T08:58:55.441Z,100105.00
2022-11-04T09:01:22.802Z,100093.97
2022-11-04T09:03:51.263Z,100084.28
2022-11-04T09:06:27.439Z,100089.38
2022-11-04T09:09:02.443Z,100084.00
2022-11-04T09:11:31.757Z,100080.75
2022-11-04T09:14:02.510Z,100083.69
2022-11-04T09:16:33.759Z,100068.88
2022-11-04T09:19:01.883Z,100068.59
2022-11-04T09:21:29.876Z,100064.00
2022-11-04T09:23:57.049Z,100047.91
2022-11-04T09:26:25.523Z,100029.31
2022-11-04T09:28:58.044Z,100043.25
2022-11-04T09:31:28.430Z,100051.53
2022-11-04T09:33:56.324Z,100046.94
2022-11-04T09:36:23.940Z,100063.59
2022-11-04T09:38:51.061Z,100065.97
2022-11-04T09:41:48.955Z,100042.00
2022-11-04T09:44:29.376Z,100033.31
2022-11-04T09:47:02.104Z,100031.38
2022-11-04T09:49:36.699Z,100033.47
2022-11-04T09:52:16.485Z,100040.09
2022-11-04T09:55:14.170Z,100040.06
2022-11-04T09:57:41.558Z,100044.03
2022-11-04T10:00:16.048Z,100051.50
2022-11-04T10:03:16.459Z,100061.09
2022-11-04T10:06:40.936Z,100081.53
2022-11-04T10:09:30.546Z,100085.31
2022-11-04T10:12:21.863Z,100096.69
2022-11-04T10:15:15.948Z,100093.47
2022-11-04T10:18:18.751Z,100114.50
2022-11-04T10:21:06.229Z,100120.41
2022-11-04T10:23:44.280Z,100124.47
2022-11-04T10:26:30.699Z,100122.34
2022-11-04T10:29:05.307Z,100122.59
2022-11-04T10:31:34.593Z,100111.81
2022-11-04T10:34:15.635Z,100108.81
2022-11-04T10:36:43.425Z,100117.72
2022-11-04T10:39:23.436Z,100123.06
2022-11-04T10:41:50.787Z,100123.06
2022-11-04T10:44:28.656Z,100121.47
2022-11-04T10:47:17.081Z,100118.47
2022-11-04T10:50:33.370Z,100118.47
2022-11-04T10:53:30.296Z,100116.88
2022-11-04T10:56:10.952Z,100120.94
2022-11-04T10:58:46.375Z,100127.69
2022-11-04T11:01:30.240Z,100137.13
2022-11-04T11:03:59.367Z,100134.47
2022-11-04T11:06:33.035Z,100128.78
2022-11-04T11:09:38.254Z,100134.16
2022-11-04T11:12:54.068Z,100134.47
2022-11-04T11:15:44.303Z,100138.50
2022-11-04T11:18:38.617Z,100154.44
2022-11-04T11:21:37.138Z,100152.88
2022-11-04T11:24:34.377Z,100155.66
2022-11-04T11:27:33.104Z,100161.34
2022-11-04T11:30:20.353Z,100164.81
2022-11-04T11:33:07.478Z,100172.09
2022-11-04T11:36:03.237Z,100170.22
2022-11-04T11:38:53.890Z,100162.97
2022-11-04T11:41:45.256Z,100171.34
2022-11-04T11:44:55.363Z,100181.59
2022-11-04T11:47:56.804Z,100174.59
2022-11-04T11:50:54.566Z,100176.50
2022-11-04T11:53:41.689Z,100182.69
2022-11-04T11:57:25.050Z,100180.28
2022-11-04T12:03:31.218Z,100171.19
2022-11-04T12:06:29.837Z,100173.88
2022-11-04T12:09:34.404Z,100172.03
2022-11-04T12:12:23.079Z,100173.13
2022-11-04T12:14:56.978Z,100180.13
2022-11-04T12:18:01.654Z,100179.31
2022-11-04T12:20:58.087Z,100187.16
2022-11-04T12:24:16.244Z,100170.22
2022-11-04T12:28:12.573Z,100186.34
2022-11-04T12:31:09.719Z,100183.94
2022-11-04T12:34:03.111Z,100179.91
2022-11-04T12:37:53.854Z,100191.19
2022-11-04T12:40:26.659Z,100194.16
2022-11-04T12:43:09.527Z,100189.31
2022-11-04T12:46:16.683Z,100176.66
2022-11-04T12:49:18.347Z,100186.09
2022-11-04T12:52:19.827Z,100186.34
2022-11-04T12:55:22.307Z,100189.59
2022-11-04T12:58:27.705Z,100184.47
2022-11-04T13:01:23.345Z,100182.31
2022-11-04T13:04:04.078Z,100187.72
2022-11-04T13:06:41.635Z,100184.22
2022-11-04T13:09:26.692Z,100184.75
2022-11-04T13:12:18.743Z,100188.50
2022-11-04T13:14:58.703Z,100188.78
2022-11-04T13:17:35.632Z,100186.13
2022-11-04T13:20:21.586Z,100197.41
2022-11-04T13:22:51.864Z,100205.75
2022-11-04T13:25:35.270Z,100207.66
2022-11-04T13:28:03.942Z,100207.09
2022-11-04T13:30:37.785Z,100218.41
2022-11-04T13:33:28.160Z,100213.28
2022-11-04T13:36:40.557Z,100217.88
2022-11-04T13:39:19.631Z,100213.59
2022-11-04T13:42:21.734Z,100206.59
2022-11-04T13:44:52.612Z,100206.31
2022-11-04T13:47:27.037Z,100209.28
2022-11-04T13:49:56.271Z,100207.94
2022-11-04T13:52:36.369Z,100215.47
2022-11-04T13:55:08.395Z,100204.72
2022-11-04T13:57:57.068Z,100214.69
2022-11-04T14:00:30.222Z,100203.91
2022-11-04T14:03:21.434Z,100206.03
2022-11-04T14:06:05.230Z,100214.94
2022-11-04T14:08:33.120Z,100211.94
2022-11-04T14:11:05.994Z,100194.22
2022-11-04T14:13:37.894Z,100215.22
2022-11-04T14:16:11.624Z,100210.13
2022-11-04T14:18:41.537Z,100214.16
2022-11-04T14:21:14.205Z,100207.41
2022-11-04T14:23:46.107Z,100200.41
2022-11-04T14:26:16.455Z,100206.88
2022-11-04T14:28:47.771Z,100207.41
2022-11-04T14:31:35.869Z,100211.19
2022-11-04T14:34:04.359Z,100215.50
2022-11-04T14:36:40.654Z,100225.97
2022-11-04T14:39:10.558Z,100226.53
2022-11-04T14:41:40.258Z,100231.88
2022-11-04T14:44:13.246Z,100238.31
2022-11-04T14:46:46.468Z,100239.38
2022-11-04T14:49:50.403Z,100236.69
2022-11-04T14:52:26.598Z,100244.50
2022-11-04T14:55:02.238Z,100243.69
2022-11-04T14:57:35.347Z,100244.22
2022-11-04T15:00:26.652Z,100239.91
2022-11-04T15:06:11.619Z,100235.63
2022-11-04T15:08:41.358Z,100244.75
2022-11-04T15:11:16.640Z,100240.19
2022-11-04T15:13:50.497Z,100243.94
2022-11-04T15:16:27.188Z,100238.31
2022-11-04T15:18:56.417Z,100252.28
2022-11-04T15:21:23.826Z,100254.16
2022-11-04T15:23:56.090Z,100257.94
2022-11-04T15:26:30.023Z,100262.50
2022-11-04T15:29:00.947Z,100256.59
2022-11-04T15:31:31.423Z,100266.25
2022-11-04T15:34:01.689Z,100266.25
2022-11-04T15:36:37.433Z,100269.22
2022-11-04T15:39:19.947Z,100269.75
2022-11-04T15:42:06.475Z,100264.91
2022-11-04T15:44:37.429Z,100267.59
2022-11-04T15:47:27.159Z,100273.22
2022-11-04T15:50:03.385Z,100256.28
2022-11-04T15:52:30.544Z,100258.16
2022-11-04T15:54:59.556Z,100259.25
2022-11-04T15:57:32.827Z,100271.34
2022-11-04T16:00:08.610Z,100268.09
2022-11-04T16:02:57.784Z,100265.41
2022-11-04T16:05:38.060Z,100275.34
2022-11-04T16:08:24.259Z,100275.59
2022-11-04T16:11:11.807Z,100285.81
2022-11-04T16:13:39.786Z,100288.47
2022-11-04T16:16:26.959Z,100290.38
2022-11-04T16:18:56.893Z,100285.53
2022-11-04T16:21:30.567Z,100289.56
2022-11-04T16:24:22.329Z,100286.31
2022-11-04T16:26:50.366Z,100293.03
2022-11-04T16:29:36.900Z,100293.84
2022-11-04T16:32:37.725Z,100293.53
2022-11-04T16:35:15.386Z,100302.41
2022-11-04T16:37:42.329Z,100305.34
2022-11-04T16:40:09.710Z,100305.88
2022-11-04T16:42:37.203Z,100312.34
2022-11-04T16:45:05.342Z,100312.59
2022-11-04T16:47:34.662Z,100317.44
2022-11-04T16:50:02.417Z,100316.63
2022-11-04T16:52:30.656Z,100316.63
2022-11-04T16:54:57.610Z,100329.25
2022-11-04T16:57:25.832Z,100330.59
2022-11-04T16:59:52.884Z,100335.97
2022-11-04T17:02:28.694Z,100327.38
2022-11-04T17:04:56.105Z,100342.97
2022-11-04T17:07:40.267Z,100339.75
2022-11-04T17:10:18.690Z,100345.69
2022-11-04T17:12:46.716Z,100336.56
2022-11-04T17:15:15.337Z,100347.31
2022-11-04T17:17:43.254Z,100347.31
2022-11-04T17:20:17.996Z,100349.19
2022-11-04T17:22:47.010Z,100355.91
2022-11-04T17:25:22.634Z,100352.69
2022-11-04T17:27:50.400Z,100355.91
2022-11-04T17:30:18.720Z,100345.97
2022-11-04T17:32:46.655Z,100358.06
2022-11-04T17:35:14.200Z,100365.06
2022-11-04T17:37:41.484Z,100360.75
2022-11-04T17:40:13.991Z,100357.53
2022-11-04T17:42:59.504Z,100359.97
2022-11-04T17:45:26.554Z,100367.75
2022-11-04T17:47:53.395Z,100367.47
2022-11-04T17:50:20.651Z,100361.81
2022-11-04T17:52:49.328Z,100370.19
2022-11-04T17:55:19.700Z,100366.41
2022-11-04T17:57:48.994Z,100376.63
2022-11-04T18:00:16.331Z,100379.06
2022-11-04T18:02:43.584Z,100378.75
2022-11-04T18:05:10.925Z,100370.16
2022-11-04T18:07:37.773Z,100385.75
2022-11-04T18:10:05.371Z,100387.38
2022-11-04T18:12:38.334Z,100384.69
2022-11-04T18:15:08.693Z,100373.91
2022-11-04T18:17:40.504Z,100388.19
2022-11-04T18:20:13.917Z,100386.81
2022-11-04T18:22:42.818Z,100387.09
2022-11-04T18:25:11.059Z,100377.69
2022-11-04T18:27:38.204Z,100390.31
2022-11-04T18:30:05.934Z,100387.09
2022-11-04T18:32:33.326Z,100401.59
2022-11-04T18:35:00.160Z,100390.56
2022-11-04T18:37:28.963Z,100401.53
2022-11-04T18:39:55.837Z,100394.53
2022-11-04T18:42:23.160Z,100398.56
2022-11-04T18:44:50.484Z,100399.38
2022-11-04T18:47:17.903Z,100394.81
2022-11-04T18:49:44.827Z,100399.91
2022-11-04T18:52:11.857Z,100389.66
2022-11-04T18:54:38.877Z,100399.88
2022-11-04T18:57:06.008Z,100391.53
2022-11-04T18:59:32.914Z,100403.66
2022-11-04T19:01:59.958Z,100403.06
2022-11-04T19:04:27.118Z,100387.22
2022-11-04T19:06:54.159Z,100392.56
2022-11-04T19:12:27.956Z,100406.03
2022-11-04T19:14:54.973Z,100416.72
2022-11-04T19:17:22.294Z,100419.41
2022-11-04T19:19:49.831Z,100418.88
2022-11-04T19:22:16.711Z,100429.34
2022-11-04T19:24:43.806Z,100416.41
2022-11-04T19:27:10.832Z,100415.88
2022-11-04T19:29:38.172Z,100426.63
2022-11-04T19:32:09.574Z,100427.44
2022-11-04T19:34:40.187Z,100433.06
2022-11-04T19:37:07.030Z,100422.22
2022-11-04T19:39:34.049Z,100418.78
2022-11-04T19:42:19.355Z,100434.13
2022-11-04T19:44:46.443Z,100422.03
2022-11-04T19:47:13.438Z,100427.16
2022-11-04T19:49:40.718Z,100438.44
2022-11-04T19:52:08.754Z,100434.41
2022-11-04T19:54:35.864Z,100427.16
2022-11-04T19:57:02.889Z,100438.97
2022-11-04T19:59:29.716Z,100438.38
2022-11-04T20:01:56.639Z,100427.09
2022-11-04T20:04:24.191Z,100436.22
2022-11-04T20:06:51.011Z,100428.69
2022-11-04T20:09:18.520Z,100432.72
2022-11-04T20:12:03.810Z,100438.09
2022-11-04T20:14:30.763Z,100438.84
2022-11-04T20:16:57.622Z,100436.13
2022-11-04T20:19:24.902Z,100449.56
2022-11-04T20:21:51.765Z,100453.00
2022-11-04T20:24:18.996Z,100449.25
2022-11-04T20:26:49.122Z,100435.28
2022-11-04T20:29:16.668Z,100439.84
2022-11-04T20:31:44.613Z,100445.22
2022-11-04T20:34:14.705Z,100453.81
2022-11-04T20:36:42.191Z,100458.66
2022-11-04T20:39:15.021Z,100457.84
2022-11-04T20:41:42.849Z,100459.72
2022-11-04T20:44:11.942Z,100470.19
2022-11-04T20:46:39.866Z,100469.09
2022-11-04T20:49:07.974Z,100478.47
2022-11-04T20:51:39.021Z,100469.34
2022-11-04T20:54:07.139Z,100470.41
2022-11-04T20:56:36.872Z,100483.31
2022-11-04T20:59:05.994Z,100477.13
2022-11-04T21:01:37.276Z,100472.56
2022-11-04T21:04:14.937Z,100477.94
2022-11-04T21:06:42.830Z,100481.44
2022-11-04T21:09:12.916Z,100478.50
2022-11-04T21:11:41.091Z,100474.19
2022-11-04T21:14:12.410Z,100484.13
2022-11-04T21:16:39.927Z,100483.63
2022-11-04T21:19:07.643Z,100493.53
2022-11-04T21:21:35.404Z,100483.88
2022-11-04T21:24:05.717Z,100484.94
2022-11-04T21:26:35.411Z,100488.44
2022-11-04T21:29:06.323Z,100497.28
2022-11-04T21:31:36.628Z,100498.91
2022-11-04T21:34:04.778Z,100498.09
2022-11-04T21:36:32.726Z,100512.34
2022-11-04T21:39:00.306Z,100506.41
2022-11-04T21:41:33.109Z,100506.41
2022-11-04T21:44:02.641Z,100512.34
2022-11-04T21:46:32.339Z,100496.19
2022-11-04T21:49:00.862Z,100506.16
2022-11-04T21:51:31.358Z,100507.50
2022-11-04T21:53:59.250Z,100515.81
2022-11-04T21:56:29.554Z,100516.13
2022-11-04T21:58:57.148Z,100511.88
2022-11-04T22:01:27.434Z,100516.44
2022-11-04T22:04:00.843Z,100514.56
2022-11-04T22:06:34.008Z,100523.13
2022-11-04T22:09:04.893Z,100521.50
2022-11-04T22:11:34.157Z,100512.34
2022-11-04T22:14:04.693Z,100529.25
2022-11-04T22:16:34.117Z,100531.38
2022-11-04T22:19:04.246Z,100527.88
2022-11-04T22:21:32.607Z,100529.19
2022-11-04T22:24:00.829Z,100530.00
2022-11-04T22:26:30.847Z,100533.75
2022-11-04T22:28:58.816Z,100536.44
2022-11-04T22:31:29.826Z,100535.88
2022-11-04T22:33:58.032Z,100527.53
2022-11-04T22:36:24.844Z,100542.88
2022-11-04T22:38:51.937Z,100534.28
2022-11-04T22:41:23.464Z,100543.94
2022-11-04T22:43:50.492Z,100548.50
2022-11-04T22:46:25.523Z,100536.97
2022-11-04T22:48:52.922Z,100541.75
2022-11-04T22:51:20.082Z,100544.69
2022-11-04T22:53:55.906Z,100542.78
2022-11-04T22:56:24.983Z,100547.34
2022-11-04T22:58:54.268Z,100542.78
2022-11-04T23:01:22.261Z,100547.34
2022-11-04T23:03:51.819Z,100541.97
2022-11-04T23:06:20.035Z,100549.47
2022-11-04T23:08:46.908Z,100555.09
2022-11-04T23:11:40.926Z,100551.91
2022-11-04T23:14:31.642Z,100568.50
2022-11-04T23:17:17.964Z,100563.38
2022-11-04T23:19:45.135Z,100558.03
2022-11-04T23:22:30.478Z,100550.22
2022-11-04T23:25:06.183Z,100563.69
2022-11-04T23:28:03.273Z,100561.00
2022-11-04T23:30:41.129Z,100565.56
2022-11-04T23:33:11.799Z,100582.47
2022-11-04T23:36:05.947Z,100568.50
2022-11-04T23:38:35.335Z,100577.63
2022-11-04T23:41:24.598Z,100572.81
2022-11-04T23:43:52.114Z,100573.31
2022-11-04T23:46:42.632Z,100568.75
2022-11-04T23:49:30.085Z,100574.94
2022-11-04T23:52:15.586Z,100569.50
2022-11-04T23:55:01.232Z,100572.72
2022-11-04T23:57:46.689Z,100575.88
